Main page
METAR-TAF:

METAR-TAF

Airports :

Deelen Air Base

Arnhem, Netherlands

latitude: 52-04N, longitude: 005-53E, elevation: 48 m

Current weather observation

The report was made 31 minutes ago, at 14:25 UTC
Wind 12 kt from the Northwest, varying between West and North/Northeast
Temperature 15°C
Humidity 59%
Pressure 1026 hPa
Visibility 10 km or more
Few clouds at a height of 2900 ft
Scattered clouds at a height of 3500 ft
Broken clouds at a height of 5300 ft

METAR: EHDL 221425Z AUTO 31012KT 280V030 9999 FEW029 SCT035 BKN053 15/07 Q1026 BLU

Time: 16:56 (14:56 UTC)


TAF: missing

Weather observations and forecasts of more than 4000 airports (METAR and TAF reports).

The available stations are represented by yellow and red dots on the map.

Hover mouse over dot to see the name of the station.

Then click to see weather observations and forecasts.

To change the map : click on the green buttons with a black cross to zoom in, on the green button with a dash to zoom out, or on the green arrows for adjacent maps.


METAR-TAF: